Time;durP1;ratioP1;P1;durP2;ratioP2;P2;SDS_P1;SDS_P2;PMS_P1;PMS_P2;Temp;Humidity;BMP_temperature;BMP_pressure;BME280_temperature;BME280_humidity;BME280_pressure;Samples;Min_cycle;Max_cycle;Signal;HPM_P1;HPM_P2
2023/01/24 00:00:07;;;;;;;;;;;;;;;30.18;59.42;100937.38;5080353;27;70554;-38
2023/01/24 00:02:38;;;;;;;;;;;;;;;30.18;59.88;100942.78;5081527;27;65471;-39
2023/01/24 00:05:09;;;;;;;;;;;;;;;30.18;59.90;100948.19;5080621;27;69945;-39
2023/01/24 00:07:40;;;;;;;;;;;;;;;30.16;59.37;100947.56;5083030;27;66619;-39
2023/01/24 00:10:11;;;;;;;;;;;;;;;30.16;59.32;100950.28;5080488;27;70130;-39
2023/01/24 00:12:41;;;;;;;;;;;;;;;30.16;59.43;100958.38;5082855;27;66421;-38
2023/01/24 00:15:12;;;;;;;;;;;;;;;30.16;59.35;100965.69;5078682;27;70379;-38
2023/01/24 00:17:42;;;;;;;;;;;;;;;30.16;59.68;100971.09;5078454;27;67010;-37
2023/01/24 00:20:13;;;;;;;;;;;;;;;30.15;59.94;100970.25;5086241;27;70034;-39
2023/01/24 00:22:43;;;;;;;;;;;;;;;30.15;59.37;100981.09;5073257;27;66946;-39
2023/01/24 00:25:14;;;;;;;;;;;;;;;30.15;59.85;100974.84;5085153;27;69027;-39
2023/01/24 00:27:44;;;;;;;;;;;;;;;30.15;59.85;100982.97;5082791;27;65468;-38
2023/01/24 00:30:15;;;;;;;;;;;;;;;30.14;59.92;100976.69;5083640;27;70645;-39
2023/01/24 00:32:46;;;;;;;;;;;;;;;30.13;59.67;100983.16;5079055;27;65608;-40
2023/01/24 00:35:17;;;;;;;;;;;;;;;30.14;59.41;100990.22;5081621;27;70738;-39
2023/01/24 00:37:48;;;;;;;;;;;;;;;30.13;59.99;100988.56;5053085;27;66253;-39
2023/01/24 00:40:19;;;;;;;;;;;;;;;30.13;59.92;100987.75;5081912;27;70339;-39
2023/01/24 00:42:51;;;;;;;;;;;;;;;30.13;59.52;100998.56;5081360;27;66134;-38
2023/01/24 00:45:21;;;;;;;;;;;;;;;30.13;59.67;101001.28;5050459;28;69084;-39
2023/01/24 00:47:52;;;;;;;;;;;;;;;30.13;59.93;101010.22;5061634;27;66078;-39
2023/01/24 00:50:22;;;;;;;;;;;;;;;30.13;59.95;101009.41;5041087;28;70266;-39
2023/01/24 00:52:53;;;;;;;;;;;;;;;30.12;59.68;101003.16;5078915;27;66932;-39
2023/01/24 00:55:24;;;;;;;;;;;;;;;30.12;60.04;101019.41;5080810;27;69891;-38
2023/01/24 00:57:54;;;;;;;;;;;;;;;30.12;59.90;101016.69;5048662;27;67117;-38
2023/01/24 01:00:25;;;;;;;;;;;;;;;30.13;60.01;101026.44;5059436;28;69987;-38
2023/01/24 01:02:55;;;;;;;;;;;;;;;30.14;59.95;101027.28;5081967;27;66092;-40
2023/01/24 01:05:26;;;;;;;;;;;;;;;30.13;59.47;101028.34;5083452;27;68948;-39
2023/01/24 01:07:56;;;;;;;;;;;;;;;30.13;60.05;101025.63;5084300;27;65514;-38
2023/01/24 01:10:27;;;;;;;;;;;;;;;30.13;59.88;101031.88;5078737;27;70255;-40
2023/01/24 01:12:57;;;;;;;;;;;;;;;30.14;59.89;101032.69;5084243;27;66650;-39
2023/01/24 01:15:28;;;;;;;;;;;;;;;30.10;59.55;101020.66;5070619;27;70503;-39
2023/01/24 01:17:59;;;;;;;;;;;;;;;30.12;59.65;101030.22;5079563;27;66895;-39
2023/01/24 01:20:30;;;;;;;;;;;;;;;30.14;59.66;101033.50;5078635;27;71059;-38
2023/01/24 01:23:01;;;;;;;;;;;;;;;30.14;59.80;101038.94;5053416;28;66934;-40
2023/01/24 01:25:31;;;;;;;;;;;;;;;30.15;59.39;101040.59;5080571;27;69885;-39
2023/01/24 01:28:02;;;;;;;;;;;;;;;30.16;59.33;101044.13;5080294;27;65982;-39
2023/01/24 01:30:32;;;;;;;;;;;;;;;30.14;59.44;101044.34;5080798;27;70345;-39
2023/01/24 01:33:03;;;;;;;;;;;;;;;30.14;59.36;101047.03;5079143;27;67107;-40
2023/01/24 01:35:34;;;;;;;;;;;;;;;30.17;59.27;101053.91;5084434;27;69415;-38
2023/01/24 01:38:04;;;;;;;;;;;;;;;30.17;59.43;101048.50;5086247;27;66705;-38
2023/01/24 01:40:35;;;;;;;;;;;;;;;30.19;59.18;101058.06;5084210;27;69817;-39
2023/01/24 01:43:14;;;;;;;;;;;;;;;30.18;59.22;101056.41;5065612;27;66604;-38
2023/01/24 01:45:45;;;;;;;;;;;;;;;30.19;59.57;101063.47;5084829;27;70768;-39
2023/01/24 01:48:22;;;;;;;;;;;;;;;30.20;59.20;101059.75;5086979;27;66553;-37
2023/01/24 01:50:55;;;;;;;;;;;;;;;30.19;59.06;101068.91;5085142;27;69794;-37
2023/01/24 01:53:28;;;;;;;;;;;;;;;30.19;58.97;101058.06;5087046;27;66027;-38
2023/01/24 01:56:08;;;;;;;;;;;;;;;30.18;58.23;101061.81;5084473;27;69296;-38
2023/01/24 01:58:40;;;;;;;;;;;;;;;30.18;57.72;101061.81;5089486;27;66656;-36
2023/01/24 02:01:11;;;;;;;;;;;;;;;30.17;57.50;101064.72;5087313;27;70369;-36
2023/01/24 02:03:49;;;;;;;;;;;;;;;30.16;58.24;101066.59;5083499;27;65503;-39
2023/01/24 02:06:40;;;;;;;;;;;;;;;30.19;58.18;101068.91;5057248;27;69253;-38
2023/01/24 02:09:12;;;;;;;;;;;;;;;30.22;58.46;101068.50;5017895;27;66413;-38
2023/01/24 02:11:43;;;;;;;;;;;;;;;30.24;58.25;101060.19;5083262;27;70297;-40
2023/01/24 02:17:05;;;;;;;;;;;;;;;30.26;58.81;101053.50;5086543;27;69953;-38
2023/01/24 02:19:39;;;;;;;;;;;;;;;30.30;58.24;101058.50;5081386;27;65769;-39
2023/01/24 02:22:15;;;;;;;;;;;;;;;30.31;58.82;101060.16;5085764;27;70047;-42
2023/01/24 02:24:52;;;;;;;;;;;;;;;30.33;58.59;101063.50;5080831;27;66640;-39
2023/01/24 02:27:23;;;;;;;;;;;;;;;30.33;58.58;101058.91;5072127;27;70426;-39
2023/01/24 02:29:56;;;;;;;;;;;;;;;30.34;58.14;101047.06;5084792;27;66550;-38
2023/01/24 02:32:26;;;;;;;;;;;;;;;30.37;58.69;101056.59;5086879;27;69078;-40
2023/01/24 02:34:57;;;;;;;;;;;;;;;30.39;58.54;101054.50;5085214;27;65959;-37
2023/01/24 02:37:28;;;;;;;;;;;;;;;30.41;58.52;101050.56;5054438;28;70203;-39
2023/01/24 02:40:09;;;;;;;;;;;;;;;30.43;58.67;101042.22;5075821;27;66216;-39
2023/01/24 02:42:40;;;;;;;;;;;;;;;30.45;58.45;101056.34;5080549;27;69237;-38
2023/01/24 02:45:14;;;;;;;;;;;;;;;30.46;58.10;101050.75;5066104;27;66793;-37
2023/01/24 02:47:46;;;;;;;;;;;;;;;30.48;58.16;101051.38;5051093;28;70492;-40
2023/01/24 02:50:19;;;;;;;;;;;;;;;30.49;58.31;101046.78;5059771;28;66049;-38
2023/01/24 02:58:30;;;;;;;;;;;;;;;30.56;57.80;101046.75;5057553;28;70018;-39
2023/01/24 03:01:01;;;;;;;;;;;;;;;30.58;58.19;101050.09;5060954;28;66563;-38
2023/01/24 03:03:32;;;;;;;;;;;;;;;30.58;57.67;101045.50;5059856;28;69434;-38
2023/01/24 03:06:03;;;;;;;;;;;;;;;30.61;58.13;101044.22;5060569;28;65889;-38
2023/01/24 03:08:36;;;;;;;;;;;;;;;30.62;57.71;101035.91;5061299;27;69998;-38
2023/01/24 03:11:15;;;;;;;;;;;;;;;30.64;57.40;101033.78;5064067;28;65960;-39
2023/01/24 03:36:31;;;;;;;;;;;;;;;30.81;57.28;100995.41;5071421;27;69103;-40
2023/01/24 03:41:53;;;;;;;;;;;;;;;30.84;57.47;100995.84;5051455;28;70663;-38
2023/01/24 03:44:24;;;;;;;;;;;;;;;30.87;57.26;100989.13;5065501;28;66860;-38
2023/01/24 03:46:54;;;;;;;;;;;;;;;30.89;57.17;100992.47;5067000;27;70420;-39
2023/01/24 03:52:30;;;;;;;;;;;;;;;30.93;57.02;100985.56;5050315;28;69862;-38
2023/01/24 03:55:07;;;;;;;;;;;;;;;30.96;57.30;100981.59;5050764;28;65649;-39
2023/01/24 03:57:39;;;;;;;;;;;;;;;30.97;57.46;100977.81;5082018;27;70020;-39
2023/01/24 04:00:10;;;;;;;;;;;;;;;30.99;57.13;100973.84;5067229;28;65640;-38
2023/01/24 04:02:44;;;;;;;;;;;;;;;31.01;57.42;100962.78;5060112;27;69034;-38
2023/01/24 04:05:20;;;;;;;;;;;;;;;31.03;56.99;100960.69;5061811;28;66207;-39
2023/01/24 04:07:52;;;;;;;;;;;;;;;31.04;56.83;100946.94;5054500;28;70139;-39
2023/01/24 04:10:24;;;;;;;;;;;;;;;31.06;57.01;100944.81;5053295;28;67001;-39
2023/01/24 04:12:55;;;;;;;;;;;;;;;31.07;56.42;100943.78;5057398;28;69892;-39
2023/01/24 04:15:28;;;;;;;;;;;;;;;31.10;56.63;100939.81;5059317;28;65806;-39
2023/01/24 04:18:19;;;;;;;;;;;;;;;31.11;56.69;100936.88;5058481;28;69863;-39
2023/01/24 04:20:49;;;;;;;;;;;;;;;31.13;56.79;100929.34;5076559;27;66931;-38
2023/01/24 04:23:20;;;;;;;;;;;;;;;31.16;56.17;100923.50;5059508;28;70273;-39
2023/01/24 04:25:59;;;;;;;;;;;;;;;31.19;56.44;100927.63;5064455;27;65656;-38
2023/01/24 04:28:31;;;;;;;;;;;;;;;31.21;56.00;100914.72;5059553;28;70829;-40
2023/01/24 04:31:04;;;;;;;;;;;;;;;31.23;56.17;100906.34;5059720;28;66978;-39
2023/01/24 04:34:04;;;;;;;;;;;;;;;31.25;55.94;100901.53;5022012;28;70418;-39
2023/01/24 04:36:37;;;;;;;;;;;;;;;31.26;56.35;100895.91;5038656;28;66303;-38
2023/01/24 04:39:08;;;;;;;;;;;;;;;31.30;55.95;100899.00;5054438;28;70129;-36
2023/01/24 04:41:58;;;;;;;;;;;;;;;31.30;55.31;100899.00;5051292;28;66038;-39
2023/01/24 04:44:29;;;;;;;;;;;;;;;31.34;55.09;100887.50;5053138;28;69210;-36
2023/01/24 04:47:00;;;;;;;;;;;;;;;31.37;54.75;100870.81;5054170;28;65616;-37
2023/01/24 04:49:32;;;;;;;;;;;;;;;31.39;54.41;100862.44;5078942;27;70182;-40
2023/01/24 04:52:04;;;;;;;;;;;;;;;31.43;54.57;100858.25;5066512;27;67038;-43
2023/01/24 04:54:46;;;;;;;;;;;;;;;31.45;54.83;100858.00;5085011;27;69751;-38
2023/01/24 04:57:17;;;;;;;;;;;;;;;31.47;54.90;100855.91;5057140;28;65916;-38
2023/01/24 04:59:48;;;;;;;;;;;;;;;31.47;55.00;100848.59;5063755;28;69215;-39
2023/01/24 05:02:20;;;;;;;;;;;;;;;31.50;54.85;100848.13;5080975;27;65471;-38
2023/01/24 05:04:50;;;;;;;;;;;;;;;31.49;55.13;100846.50;5078600;27;70681;-40
2023/01/24 05:07:21;;;;;;;;;;;;;;;31.50;55.06;100845.41;5081111;28;66430;-39
2023/01/24 05:09:59;;;;;;;;;;;;;;;31.52;54.92;100845.22;5075879;27;70216;-38
2023/01/24 05:12:30;;;;;;;;;;;;;;;31.53;55.42;100838.72;5062411;28;66625;-38
2023/01/24 05:15:05;;;;;;;;;;;;;;;31.54;55.17;100835.81;5058282;28;69660;-38
2023/01/24 05:17:37;;;;;;;;;;;;;;;31.55;55.27;100829.31;5054267;28;65068;-40
2023/01/24 05:20:08;;;;;;;;;;;;;;;31.56;55.15;100822.81;5063883;28;69818;-39
2023/01/24 05:22:39;;;;;;;;;;;;;;;31.57;55.26;100815.53;5084782;27;65623;-40
2023/01/24 05:25:09;;;;;;;;;;;;;;;31.58;55.29;100812.59;5077999;28;70360;-39
2023/01/24 05:27:42;;;;;;;;;;;;;;;31.60;55.04;100805.06;5065304;28;66682;-39
2023/01/24 05:30:15;;;;;;;;;;;;;;;31.60;55.10;100796.94;5065211;28;70264;-38
2023/01/24 05:32:49;;;;;;;;;;;;;;;31.61;55.18;100790.44;5064765;28;66719;-39
2023/01/24 05:35:20;;;;;;;;;;;;;;;31.65;55.13;100789.97;5080299;27;71474;-40
2023/01/24 05:37:51;;;;;;;;;;;;;;;31.66;55.14;100786.22;5065020;27;66086;-38
2023/01/24 05:40:24;;;;;;;;;;;;;;;31.67;54.89;100777.84;5060376;28;70086;-38
2023/01/24 05:42:54;;;;;;;;;;;;;;;31.68;54.84;100767.81;5075725;27;66396;-37
2023/01/24 05:45:25;;;;;;;;;;;;;;;31.69;54.39;100769.50;5057105;28;70373;-39
2023/01/24 05:47:55;;;;;;;;;;;;;;;31.70;54.39;100765.72;5062498;28;66102;-38
2023/01/24 05:50:26;;;;;;;;;;;;;;;31.72;54.34;100758.19;5061661;28;69375;-38
2023/01/24 05:53:14;;;;;;;;;;;;;;;31.73;54.60;100751.69;5060049;27;66099;-39
2023/01/24 05:55:45;;;;;;;;;;;;;;;31.73;54.10;100743.56;5075879;27;70205;-38
2023/01/24 05:58:16;;;;;;;;;;;;;;;31.74;54.38;100745.25;5061160;28;66306;-39
2023/01/24 06:01:08;;;;;;;;;;;;;;;31.75;54.14;100747.72;5059271;28;69922;-38
2023/01/24 06:03:43;;;;;;;;;;;;;;;31.74;53.90;100724.38;5058719;27;67269;-38
2023/01/24 06:06:14;;;;;;;;;;;;;;;31.77;53.76;100726.63;5057866;27;69187;-40
2023/01/24 06:08:47;;;;;;;;;;;;;;;31.78;53.85;100716.59;5041612;28;66810;-41
2023/01/24 06:11:23;;;;;;;;;;;;;;;31.80;53.64;100714.47;5057769;28;70542;-40
2023/01/24 06:14:08;;;;;;;;;;;;;;;31.81;53.41;100697.97;5058493;28;66113;-39
2023/01/24 06:16:39;;;;;;;;;;;;;;;31.85;53.41;100714.63;5077510;27;70173;-37
2023/01/24 06:19:13;;;;;;;;;;;;;;;31.86;53.45;100704.59;5057815;28;65907;-40
2023/01/24 06:21:44;;;;;;;;;;;;;;;31.89;53.25;100698.69;5077653;27;70837;-38
2023/01/24 06:24:20;;;;;;;;;;;;;;;31.91;53.25;100697.44;5061787;28;66771;-39
2023/01/24 06:27:29;;;;;;;;;;;;;;;31.94;52.81;100678.00;5075847;27;70476;-38
2023/01/24 06:29:59;;;;;;;;;;;;;;;31.96;52.79;100672.34;5089542;27;66406;-39
2023/01/24 06:32:34;;;;;;;;;;;;;;;31.97;52.65;100661.25;5051427;27;69642;-39
2023/01/24 06:35:11;;;;;;;;;;;;;;;31.98;52.57;100662.91;5093365;27;66799;-38
2023/01/24 06:37:50;;;;;;;;;;;;;;;32.02;52.42;100665.97;5062177;27;69041;-38
2023/01/24 06:40:22;;;;;;;;;;;;;;;32.03;52.24;100660.31;5057636;27;65697;-39
2023/01/24 06:42:54;;;;;;;;;;;;;;;32.04;52.17;100664.69;5086211;27;70179;-38
2023/01/24 06:45:24;;;;;;;;;;;;;;;32.07;52.24;100657.13;5037389;28;65261;-37
2023/01/24 06:47:57;;;;;;;;;;;;;;;32.09;52.01;100649.59;5087068;27;69291;-39
2023/01/24 06:50:31;;;;;;;;;;;;;;;32.10;51.83;100648.53;5082303;27;65524;-39
2023/01/24 06:53:01;;;;;;;;;;;;;;;32.11;51.97;100651.00;5081594;27;70101;-38
2023/01/24 06:55:32;;;;;;;;;;;;;;;32.14;51.78;100647.00;5083048;27;65172;-38
2023/01/24 06:58:03;;;;;;;;;;;;;;;32.17;51.78;100641.09;5082642;27;70841;-39
2023/01/24 07:00:35;;;;;;;;;;;;;;;32.18;51.57;100640.03;5083119;27;66255;-39
2023/01/24 07:03:06;;;;;;;;;;;;;;;32.19;51.37;100634.38;5086605;27;70505;-40
2023/01/24 07:05:39;;;;;;;;;;;;;;;32.20;51.42;100635.19;5082896;27;66036;-38
2023/01/24 07:08:10;;;;;;;;;;;;;;;32.22;51.55;100633.91;5079478;27;70761;-39
2023/01/24 07:10:42;;;;;;;;;;;;;;;32.27;51.69;100631.31;5078708;27;66890;-37
2023/01/24 07:13:12;;;;;;;;;;;;;;;32.31;51.45;100620.81;5089055;27;69703;-38
2023/01/24 07:15:43;;;;;;;;;;;;;;;32.33;51.14;100613.25;5056568;27;66629;-37
2023/01/24 07:18:14;;;;;;;;;;;;;;;32.35;50.97;100611.13;5087892;27;70724;-37
2023/01/24 07:20:45;;;;;;;;;;;;;;;32.39;50.87;100606.88;5078513;27;65752;-40
2023/01/24 07:23:19;;;;;;;;;;;;;;;32.41;50.94;100602.03;5082881;27;70646;-39
2023/01/24 07:25:52;;;;;;;;;;;;;;;32.44;51.05;100598.84;5059947;27;66363;-39
2023/01/24 07:28:23;;;;;;;;;;;;;;;32.46;50.70;100599.47;5079206;27;70327;-40
2023/01/24 07:30:53;;;;;;;;;;;;;;;32.51;50.67;100587.88;5080743;27;66036;-39
2023/01/24 07:33:24;;;;;;;;;;;;;;;32.53;50.66;100580.31;5079478;27;71178;-39
2023/01/24 07:35:55;;;;;;;;;;;;;;;32.57;50.63;100575.25;5084310;27;66127;-39
2023/01/24 07:38:25;;;;;;;;;;;;;;;32.60;50.38;100580.22;5079886;27;70313;-38
2023/01/24 07:40:57;;;;;;;;;;;;;;;32.64;50.35;100573.22;5079047;27;65481;-40
2023/01/24 07:43:27;;;;;;;;;;;;;;;32.65;50.50;100569.44;5080013;27;70266;-41
2023/01/24 07:45:58;;;;;;;;;;;;;;;32.43;50.07;100529.34;5079103;27;66650;-39
2023/01/24 07:48:29;;;;;;;;;;;;;;;32.71;50.35;100568.50;5077415;27;69328;-39
2023/01/24 07:51:00;;;;;;;;;;;;;;;32.74;50.04;100565.31;5055705;27;66306;-41
2023/01/24 07:53:31;;;;;;;;;;;;;;;32.78;50.00;100568.34;5072716;27;70103;-38
2023/01/24 07:56:02;;;;;;;;;;;;;;;32.80;49.93;100564.34;5076108;27;66565;-38
2023/01/24 07:58:33;;;;;;;;;;;;;;;32.85;49.88;100571.78;5082348;27;71358;-41
2023/01/24 08:01:04;;;;;;;;;;;;;;;32.88;49.83;100563.94;5082189;27;66083;-40
2023/01/24 08:03:34;;;;;;;;;;;;;;;32.91;49.86;100563.47;5078579;27;69627;-39
2023/01/24 08:06:05;;;;;;;;;;;;;;;32.94;49.61;100565.69;5059251;27;66887;-40
2023/01/24 08:08:36;;;;;;;;;;;;;;;32.99;49.40;100561.41;5076604;27;70516;-40
2023/01/24 08:11:07;;;;;;;;;;;;;;;33.02;49.15;100559.09;5076471;27;65944;-39
2023/01/24 08:13:37;;;;;;;;;;;;;;;33.06;49.22;100557.53;5060035;27;69940;-39
2023/01/24 08:16:08;;;;;;;;;;;;;;;33.09;48.82;100556.22;5078431;27;66704;-40
2023/01/24 08:18:40;;;;;;;;;;;;;;;33.12;48.63;100563.88;5078605;27;69499;-40
2023/01/24 08:21:11;;;;;;;;;;;;;;;33.17;48.57;100561.25;5058156;27;65412;-37
2023/01/24 08:23:42;;;;;;;;;;;;;;;33.20;48.66;100555.34;5047272;27;69892;-39
2023/01/24 08:26:13;;;;;;;;;;;;;;;33.24;48.43;100550.22;5079575;27;66249;-40
2023/01/24 08:28:43;;;;;;;;;;;;;;;33.26;48.79;100562.50;5079204;27;70572;-39
2023/01/24 08:31:15;;;;;;;;;;;;;;;33.31;48.66;100559.06;5081713;27;66346;-39
2023/01/24 08:33:46;;;;;;;;;;;;;;;33.35;49.16;100558.34;5078862;27;69708;-39
2023/01/24 08:36:16;;;;;;;;;;;;;;;33.35;48.97;100555.63;5080048;27;66484;-38
2023/01/24 08:38:47;;;;;;;;;;;;;;;33.38;49.16;100555.13;5060235;27;70068;-38
2023/01/24 08:41:17;;;;;;;;;;;;;;;33.42;49.36;100565.50;5080104;27;66815;-38
2023/01/24 08:43:48;;;;;;;;;;;;;;;33.45;49.33;100562.28;5078175;27;70344;-38
2023/01/24 08:46:19;;;;;;;;;;;;;;;33.50;49.63;100562.38;5084611;27;66897;-42
2023/01/24 08:48:49;;;;;;;;;;;;;;;33.56;49.71;100566.88;4940478;28;3176705;-40
2023/01/24 08:51:20;;;;;;;;;;;;;;;33.60;50.04;100565.31;5058562;28;66077;-39
2023/01/24 08:53:50;;;;;;;;;;;;;;;33.66;50.09;100561.59;5062465;28;70274;-39
2023/01/24 08:56:21;;;;;;;;;;;;;;;33.70;49.80;100562.75;5064806;28;65581;-39
2023/01/24 08:58:52;;;;;;;;;;;;;;;33.74;49.83;100571.22;5065413;27;70209;-38
2023/01/24 09:01:22;;;;;;;;;;;;;;;33.78;49.83;100575.13;5062756;28;65634;-38
2023/01/24 09:03:56;;;;;;;;;;;;;;;33.80;49.85;100579.25;5062440;28;70428;-38
2023/01/24 09:06:28;;;;;;;;;;;;;;;33.84;49.95;100584.19;5068278;28;66987;-38
2023/01/24 09:08:58;;;;;;;;;;;;;;;33.86;49.73;100582.06;5060406;28;70596;-38
2023/01/24 09:11:29;;;;;;;;;;;;;;;33.90;49.92;100588.63;5067533;28;66232;-39
2023/01/24 09:13:59;;;;;;;;;;;;;;;33.91;50.09;100590.31;5062437;27;70085;-38
2023/01/24 09:16:30;;;;;;;;;;;;;;;33.94;50.22;100595.25;5065265;28;65578;-38
2023/01/24 09:19:01;;;;;;;;;;;;;;;33.96;50.36;100598.53;5030594;28;69995;-38
2023/01/24 09:21:32;;;;;;;;;;;;;;;33.95;50.24;100592.25;5069390;27;65594;-39
2023/01/24 09:24:02;;;;;;;;;;;;;;;33.96;50.40;100599.38;5063332;28;69161;-41
2023/01/24 09:26:33;;;;;;;;;;;;;;;33.97;50.20;100611.06;5066882;28;66791;-40
2023/01/24 09:29:04;;;;;;;;;;;;;;;33.97;50.35;100611.06;5066447;28;70304;-39
2023/01/24 09:31:35;;;;;;;;;;;;;;;33.98;50.47;100618.16;5070258;27;66211;-38
2023/01/24 09:34:06;;;;;;;;;;;;;;;33.99;50.48;100608.91;5062067;27;70408;-39
2023/01/24 09:36:37;;;;;;;;;;;;;;;33.98;50.10;100618.16;5071057;28;66850;-39
2023/01/24 09:39:08;;;;;;;;;;;;;;;34.00;50.35;100610.56;5067865;28;69472;-39
2023/01/24 09:41:45;;;;;;;;;;;;;;;34.01;50.58;100609.50;5046827;28;65314;-38
2023/01/24 09:44:38;;;;;;;;;;;;;;;34.00;50.58;100610.56;5063689;28;70517;-40
2023/01/24 09:47:32;;;;;;;;;;;;;;;34.00;50.59;100616.03;5064171;27;65787;-39
2023/01/24 09:50:04;;;;;;;;;;;;;;;34.00;50.51;100614.13;5078691;27;69892;-41
2023/01/24 09:52:43;;;;;;;;;;;;;;;34.00;50.76;100621.47;5081489;27;66090;-39
2023/01/24 09:55:22;;;;;;;;;;;;;;;33.99;50.82;100619.78;5081960;27;69215;-40
2023/01/24 09:58:04;;;;;;;;;;;;;;;33.97;50.49;100625.50;5051664;27;66928;-38
2023/01/24 10:00:36;;;;;;;;;;;;;;;33.98;50.72;100634.47;5085662;27;70277;-40
2023/01/24 10:03:25;;;;;;;;;;;;;;;33.98;50.84;100634.47;5082584;27;66997;-39
2023/01/24 10:06:01;;;;;;;;;;;;;;;33.97;50.70;100632.84;5094163;27;70257;-39
2023/01/24 10:08:49;;;;;;;;;;;;;;;33.96;51.00;100633.91;5072180;27;65957;-40
2023/01/24 10:11:21;;;;;;;;;;;;;;;33.94;50.84;100630.63;5093465;27;70247;-39
2023/01/24 10:13:51;;;;;;;;;;;;;;;33.93;51.11;100637.13;5082985;27;66149;-38
2023/01/24 10:16:34;;;;;;;;;;;;;;;33.92;51.38;100630.03;5086193;27;70379;-39
2023/01/24 10:19:08;;;;;;;;;;;;;;;33.90;51.16;100626.72;5083271;27;66046;-40
2023/01/24 10:21:58;;;;;;;;;;;;;;;33.89;51.41;100631.34;5084644;27;70010;-39
2023/01/24 10:24:32;;;;;;;;;;;;;;;33.86;51.51;100611.97;5038570;27;66677;-38
2023/01/24 10:27:15;;;;;;;;;;;;;;;33.85;51.76;100619.31;5068075;27;69218;-39
2023/01/24 10:29:47;;;;;;;;;;;;;;;33.84;51.83;100616.84;5086150;27;65477;-41
2023/01/24 10:32:26;;;;;;;;;;;;;;;33.78;51.87;100624.91;5085488;27;69690;-39
2023/01/24 10:35:16;;;;;;;;;;;;;;;33.78;52.25;100619.47;5086348;27;66221;-41
2023/01/24 10:37:50;;;;;;;;;;;;;;;33.75;52.41;100622.69;5084362;27;69889;-41
2023/01/24 10:40:21;;;;;;;;;;;;;;;33.72;52.55;100646.84;5085303;27;66307;-38
2023/01/24 10:42:52;;;;;;;;;;;;;;;33.19;53.20;100659.69;5083954;27;70962;-38
2023/01/24 10:45:32;;;;;;;;;;;;;;;32.92;54.08;100649.31;5079552;27;66978;-39
2023/01/24 10:48:34;;;;;;;;;;;;;;;32.76;54.83;100669.06;5066308;27;70605;-37
2023/01/24 10:51:18;;;;;;;;;;;;;;;32.62;55.30;100660.34;5076703;27;65821;-38
2023/01/24 10:53:49;;;;;;;;;;;;;;;32.52;55.35;100653.91;5082108;27;69976;-40
2023/01/24 10:56:21;;;;;;;;;;;;;;;32.19;56.08;100620.00;5078444;27;65326;-38
2023/01/24 10:59:00;;;;;;;;;;;;;;;32.38;56.60;100654.09;5076579;27;69025;-40
2023/01/24 11:01:38;;;;;;;;;;;;;;;32.35;56.76;100664.59;5079421;27;66092;-38
2023/01/24 11:04:15;;;;;;;;;;;;;;;32.29;57.09;100677.22;5080080;27;70527;-38
2023/01/24 11:06:47;;;;;;;;;;;;;;;32.26;57.50;100677.69;5069667;27;67167;-37
2023/01/24 11:09:23;;;;;;;;;;;;;;;32.21;57.42;100664.00;5075852;27;69771;-37
2023/01/24 11:11:56;;;;;;;;;;;;;;;32.17;57.90;100671.78;5050064;27;66834;-38
2023/01/24 11:14:31;;;;;;;;;;;;;;;32.19;58.27;100676.97;5082131;27;69939;-36
2023/01/24 11:17:02;;;;;;;;;;;;;;;32.17;58.17;100676.38;5081171;27;66245;-38
2023/01/24 11:19:42;;;;;;;;;;;;;;;32.16;58.33;100682.88;5084425;27;70641;-38
2023/01/24 11:22:20;;;;;;;;;;;;;;;32.15;58.48;100698.34;5077809;27;66978;-38
2023/01/24 11:24:55;;;;;;;;;;;;;;;32.13;58.52;100699.63;5082250;27;70531;-38
2023/01/24 11:27:28;;;;;;;;;;;;;;;32.14;58.78;100712.13;5080541;27;67259;-37
2023/01/24 11:30:06;;;;;;;;;;;;;;;32.11;58.84;100723.44;5080358;27;72253;-38
2023/01/24 11:32:45;;;;;;;;;;;;;;;32.12;58.86;100725.09;5093728;27;66261;-39
2023/01/24 11:35:15;;;;;;;;;;;;;;;32.11;59.23;100739.72;5070012;27;70731;-39
2023/01/24 11:37:57;;;;;;;;;;;;;;;32.11;59.26;100769.56;5084684;27;66934;-38
2023/01/24 11:40:38;;;;;;;;;;;;;;;32.10;59.33;100784.22;5079119;27;69829;-38
2023/01/24 11:43:08;;;;;;;;;;;;;;;32.08;59.24;100817.00;5082624;27;66712;-39
2023/01/24 11:45:54;;;;;;;;;;;;;;;32.07;58.97;100841.63;5073254;27;69783;-39
2023/01/24 11:48:37;;;;;;;;;;;;;;;32.07;59.50;100852.47;5081938;27;66597;-38
2023/01/24 11:51:26;;;;;;;;;;;;;;;32.03;59.71;100857.56;5082690;27;69943;-38
2023/01/24 11:54:02;;;;;;;;;;;;;;;32.00;59.65;100872.41;5081870;27;66890;-39
2023/01/24 11:56:41;;;;;;;;;;;;;;;31.97;59.64;100894.56;5079175;27;70017;-39
2023/01/24 11:59:14;;;;;;;;;;;;;;;31.94;60.24;100908.59;5066048;27;65181;-39
2023/01/24 12:01:57;;;;;;;;;;;;;;;31.89;60.15;100905.69;5075774;27;69814;-38
2023/01/24 12:04:30;;;;;;;;;;;;;;;31.85;60.74;100923.50;5082337;27;66117;-40
2023/01/24 12:07:06;;;;;;;;;;;;;;;31.80;61.05;100945.84;5076762;27;69617;-40
2023/01/24 12:09:46;;;;;;;;;;;;;;;31.77;61.10;100923.78;5078807;27;66685;-39
2023/01/24 12:12:37;;;;;;;;;;;;;;;31.72;61.63;100920.91;5085239;27;69290;-37
2023/01/24 12:15:22;;;;;;;;;;;;;;;31.66;62.12;100932.66;5065277;27;66025;-38
2023/01/24 12:18:00;;;;;;;;;;;;;;;31.60;62.54;100929.78;5079250;27;69771;-39
2023/01/24 12:20:30;;;;;;;;;;;;;;;31.57;62.81;100919.41;5079386;27;65617;-40
2023/01/24 12:23:16;;;;;;;;;;;;;;;31.54;63.52;100903.59;5080586;27;70081;-39
2023/01/24 12:25:49;;;;;;;;;;;;;;;31.52;63.52;100889.41;5078760;27;66116;-39
2023/01/24 12:28:33;;;;;;;;;;;;;;;31.50;63.98;100890.69;5082218;27;70679;-38
2023/01/24 12:31:04;;;;;;;;;;;;;;;31.48;64.17;100901.78;5066789;27;67196;-38
2023/01/24 12:33:36;;;;;;;;;;;;;;;31.44;64.67;100897.84;5083187;27;68789;-40
2023/01/24 12:36:23;;;;;;;;;;;;;;;31.42;64.77;100899.94;5083873;27;64193;-37
2023/01/24 12:38:59;;;;;;;;;;;;;;;31.38;64.80;100890.59;5086496;27;70043;-37
2023/01/24 12:41:34;;;;;;;;;;;;;;;31.37;64.86;100897.06;5080449;27;66933;-38
2023/01/24 12:44:19;;;;;;;;;;;;;;;31.32;65.21;100895.00;5088159;27;70193;-38
2023/01/24 12:47:00;;;;;;;;;;;;;;;31.32;65.51;100902.31;5080461;27;66674;-40
2023/01/24 12:49:35;;;;;;;;;;;;;;;31.30;65.10;100896.28;5079057;27;69720;-37
2023/01/24 12:52:13;;;;;;;;;;;;;;;31.29;65.53;100900.88;5089467;27;66627;-40
2023/01/24 12:54:53;;;;;;;;;;;;;;;31.27;65.74;100894.00;5085776;27;70612;-37
2023/01/24 12:57:30;;;;;;;;;;;;;;;31.26;65.86;100905.88;5071291;27;66693;-38
2023/01/24 13:00:01;;;;;;;;;;;;;;;31.25;65.66;100905.06;5073624;27;69652;-37
2023/01/24 13:02:38;;;;;;;;;;;;;;;31.24;65.90;100908.00;5087145;27;65597;-38
2023/01/24 13:05:35;;;;;;;;;;;;;;;31.21;66.15;100909.28;5080132;27;69754;-38
2023/01/24 13:08:09;;;;;;;;;;;;;;;31.21;66.37;100913.88;5072278;27;66478;-39
2023/01/24 13:10:39;;;;;;;;;;;;;;;31.18;66.60;100926.00;5091372;27;70350;-40
2023/01/24 13:13:19;;;;;;;;;;;;;;;31.17;66.40;100924.31;5081416;27;66110;-37
2023/01/24 13:15:50;;;;;;;;;;;;;;;31.15;66.61;100921.84;5069814;27;70377;-37
2023/01/24 13:18:39;;;;;;;;;;;;;;;31.12;66.80;100922.28;5064022;27;66099;-38
2023/01/24 13:21:15;;;;;;;;;;;;;;;31.13;66.91;100928.53;5086329;27;70280;-40
2023/01/24 13:24:01;;;;;;;;;;;;;;;31.10;67.53;100924.38;5084805;27;66378;-37
2023/01/24 13:26:51;;;;;;;;;;;;;;;31.08;67.43;100926.47;5075683;27;70094;-39
2023/01/24 13:29:39;;;;;;;;;;;;;;;31.06;67.42;100915.03;5080500;27;66319;-37
2023/01/24 13:32:14;;;;;;;;;;;;;;;31.08;67.35;100925.66;5084577;27;69905;-40
2023/01/24 13:34:51;;;;;;;;;;;;;;;31.04;67.29;100930.69;5082877;27;66548;-39
2023/01/24 13:37:26;;;;;;;;;;;;;;;31.05;67.71;100928.81;5082091;27;70426;-41
2023/01/24 13:40:14;;;;;;;;;;;;;;;31.04;67.27;100936.09;5094225;27;65995;-38
2023/01/24 13:42:45;;;;;;;;;;;;;;;31.02;67.96;100943.63;5081728;27;70039;-37
2023/01/24 13:45:25;;;;;;;;;;;;;;;31.01;67.80;100939.25;5069251;27;64529;-39
2023/01/24 13:47:57;;;;;;;;;;;;;;;31.10;66.83;100940.63;5060100;27;68953;-39